Time,TemperatureF,DewpointF,PressureIn,WindDirection,WindDirectionDegrees,WindSpeedMPH,WindSpeedGustMPH,Humidity,HourlyPrecipIn,Conditions,Clouds,dailyrainin,SoftwareType,DateUTC
2013-09-06 00:00:00,77.7,75.8,30.07,West,261,0.0,2.0,94,0.00,,,0.48,Wunderground v.1.15,2013-09-06 04:00:00,
2013-09-06 00:02:00,77.8,75.9,30.07,West,275,1.0,2.0,94,0.00,,,0.48,Wunderground v.1.15,2013-09-06 04:02:00,
2013-09-06 00:04:00,77.8,75.9,30.07,WSW,237,1.0,2.0,94,0.00,,,0.00,Wunderground v.1.15,2013-09-06 04:04:00,
2013-09-06 00:06:00,77.8,75.9,30.07,West,272,1.0,2.0,94,0.00,,,0.00,Wunderground v.1.15,2013-09-06 04:06:00,
2013-09-06 00:08:00,77.8,75.6,30.06,NW,309,1.0,2.0,93,0.00,,,0.00,Wunderground v.1.15,2013-09-06 04:08:00,
2013-09-06 00:14:00,77.9,75.7,30.07,NNE,30,0.0,1.0,93,0.00,,,0.00,Wunderground v.1.15,2013-09-06 04:14:00,
2013-09-06 00:20:00,77.9,76.0,30.07,NE,51,0.0,4.0,94,0.00,,,0.00,Wunderground v.1.15,2013-09-06 04:20:00,
2013-09-06 00:26:00,77.7,75.8,30.07,NW,324,3.0,5.0,94,0.00,,,0.00,Wunderground v.1.15,2013-09-06 04:26:00,
2013-09-06 00:32:00,77.6,76.1,30.07,NNE,31,4.0,4.0,95,0.00,,,0.00,Wunderground v.1.15,2013-09-06 04:32:00,
2013-09-06 00:38:00,77.4,75.9,30.06,North,5,1.0,4.0,95,0.00,,,0.00,Wunderground v.1.15,2013-09-06 04:38:00,
2013-09-06 00:44:00,77.4,75.9,30.07,North,5,0.0,1.0,95,0.00,,,0.00,Wunderground v.1.15,2013-09-06 04:44:00,
2013-09-06 00:46:00,77.5,76.0,30.07,North,5,0.0,1.0,95,0.00,,,0.00,Wunderground v.1.15,2013-09-06 04:46:00,
2013-09-06 00:52:00,77.5,76.0,30.07,North,5,0.0,0.0,95,0.00,,,0.00,Wunderground v.1.15,2013-09-06 04:52:00,
2013-09-06 00:58:00,77.6,76.1,30.07,NNW,348,0.0,0.0,95,0.00,,,0.00,Wunderground v.1.15,2013-09-06 04:58:00,
2013-09-06 01:04:00,77.6,76.1,30.07,SW,231,0.0,3.0,95,0.00,,,0.00,Wunderground v.1.15,2013-09-06 05:04:00,
2013-09-06 01:10:00,77.6,76.1,30.07,SW,227,0.0,0.0,95,0.00,,,0.00,Wunderground v.1.15,2013-09-06 05:10:00,
2013-09-06 01:16:00,77.6,76.1,30.06,SW,227,0.0,0.0,95,0.00,,,0.00,Wunderground v.1.15,2013-09-06 05:16:00,
2013-09-06 01:22:00,77.5,76.0,30.06,SW,227,0.0,0.0,95,0.00,,,0.00,Wunderground v.1.15,2013-09-06 05:22:00,
2013-09-06 01:28:00,77.5,76.0,30.06,SW,227,0.0,0.0,95,0.00,,,0.00,Wunderground v.1.15,2013-09-06 05:28:00,
2013-09-06 01:34:00,77.4,75.9,30.06,South,180,0.0,0.0,95,0.00,,,0.00,Wunderground v.1.15,2013-09-06 05:34:00,
2013-09-06 01:40:00,77.4,75.9,30.06,South,183,0.0,0.0,95,0.00,,,0.00,Wunderground v.1.15,2013-09-06 05:40:00,
2013-09-06 01:46:00,77.5,76.0,30.06,SSW,192,0.0,0.0,95,0.00,,,0.00,Wunderground v.1.15,2013-09-06 05:46:00,
2013-09-06 01:52:00,77.4,75.9,30.07,WNW,298,0.0,0.0,95,0.00,,,0.00,Wunderground v.1.15,2013-09-06 05:52:00,
2013-09-06 01:58:00,77.3,75.8,30.06,WNW,298,0.0,0.0,95,0.00,,,0.00,Wunderground v.1.15,2013-09-06 05:58:00,
2013-09-06 02:04:00,77.3,75.8,30.06,South,182,0.0,0.0,95,0.00,,,0.00,Wunderground v.1.15,2013-09-06 06:04:00,
2013-09-06 02:10:00,77.3,75.8,30.06,SW,214,0.0,0.0,95,0.00,,,0.00,Wunderground v.1.15,2013-09-06 06:10:00,
2013-09-06 02:16:00,77.3,75.8,30.05,SW,226,0.0,0.0,95,0.00,,,0.00,Wunderground v.1.15,2013-09-06 06:16:00,
2013-09-06 02:22:00,77.1,75.6,30.05,SW,226,0.0,0.0,95,0.00,,,0.00,Wunderground v.1.15,2013-09-06 06:22:00,
2013-09-06 02:28:00,77.0,75.5,30.05,SW,225,0.0,0.0,95,0.00,,,0.00,Wunderground v.1.15,2013-09-06 06:28:00,
2013-09-06 02:34:00,77.0,75.8,30.05,SW,218,0.0,0.0,96,0.00,,,0.00,Wunderground v.1.15,2013-09-06 06:34:00,
2013-09-06 02:40:00,77.1,75.9,30.05,WSW,242,0.0,0.0,96,0.00,,,0.00,Wunderground v.1.15,2013-09-06 06:40:00,
2013-09-06 02:46:00,77.2,76.0,30.04,WSW,240,0.0,0.0,96,0.00,,,0.00,Wunderground v.1.15,2013-09-06 06:46:00,
2013-09-06 02:52:00,77.0,75.5,30.04,WSW,252,1.0,2.0,95,0.00,,,0.00,Wunderground v.1.15,2013-09-06 06:52:00,
2013-09-06 02:58:00,76.9,75.4,30.04,WSW,247,2.0,3.0,95,0.00,,,0.00,Wunderground v.1.15,2013-09-06 06:58:00,
2013-09-06 03:04:00,77.1,75.6,30.04,WSW,245,2.0,3.0,95,0.00,,,0.00,Wunderground v.1.15,2013-09-06 07:04:00,
2013-09-06 03:10:00,77.1,75.2,30.04,West,278,1.0,1.0,94,0.00,,,0.00,Wunderground v.1.15,2013-09-06 07:10:00,
2013-09-06 03:16:00,77.0,75.1,30.04,NNW,328,0.0,3.0,94,0.00,,,0.00,Wunderground v.1.15,2013-09-06 07:16:00,
2013-09-06 03:22:00,76.7,75.2,30.04,NW,323,2.0,2.0,95,0.00,,,0.00,Wunderground v.1.15,2013-09-06 07:22:00,
2013-09-06 03:28:00,76.5,75.0,30.03,NW,326,1.0,2.0,95,0.00,,,0.00,Wunderground v.1.15,2013-09-06 07:28:00,
2013-09-06 03:34:00,76.4,74.9,30.03,North,350,1.0,5.0,95,0.00,,,0.00,Wunderground v.1.15,2013-09-06 07:34:00,
2013-09-06 03:40:00,75.7,74.2,30.03,NNE,18,3.0,3.0,95,0.00,,,0.00,Wunderground v.1.15,2013-09-06 07:40:00,
2013-09-06 03:46:00,75.7,74.2,30.03,NNE,18,2.0,3.0,95,0.00,,,0.00,Wunderground v.1.15,2013-09-06 07:46:00,
2013-09-06 03:52:00,-999.9,-99.9,30.03,North,32767,-999.0,0.0,255,-99.99,,,0.00,Wunderground v.1.15,2013-09-06 07:52:00,
2013-09-06 03:58:00,-999.9,-99.9,30.03,North,32767,-999.0,0.0,255,-99.99,,,0.00,Wunderground v.1.15,2013-09-06 07:58:00,
2013-09-06 04:04:00,-999.9,-99.9,30.03,North,32767,-999.0,4.0,255,-99.99,,,0.00,Wunderground v.1.15,2013-09-06 08:04:00,
2013-09-06 04:10:00,-999.9,-99.9,30.03,North,32767,-999.0,0.0,255,-99.99,,,0.00,Wunderground v.1.15,2013-09-06 08:10:00,
2013-09-06 04:16:00,-999.9,-99.9,30.03,North,32767,-999.0,0.0,255,-99.99,,,0.00,Wunderground v.1.15,2013-09-06 08:16:00,
2013-09-06 04:22:00,-999.9,-99.9,30.03,North,32767,-999.0,0.0,255,-99.99,,,0.00,Wunderground v.1.15,2013-09-06 08:22:00,
2013-09-06 04:28:00,-999.9,-99.9,30.03,North,32767,-999.0,0.0,255,-99.99,,,0.00,Wunderground v.1.15,2013-09-06 08:28:00,
2013-09-06 04:34:00,-999.9,-99.9,30.03,North,32767,-999.0,0.0,255,-99.99,,,0.00,Wunderground v.1.15,2013-09-06 08:34:00,
2013-09-06 04:40:00,-999.9,-99.9,30.03,North,32767,-999.0,0.0,255,-99.99,,,0.00,Wunderground v.1.15,2013-09-06 08:40:00,
2013-09-06 04:46:00,-999.9,-99.9,30.03,North,32767,-999.0,0.0,255,-99.99,,,0.00,Wunderground v.1.15,2013-09-06 08:46:00,
2013-09-06 04:52:00,-999.9,-99.9,30.03,North,32767,-999.0,0.0,255,-99.99,,,0.00,Wunderground v.1.15,2013-09-06 08:52:00,
2013-09-06 04:58:00,-999.9,-99.9,30.03,North,32767,-999.0,0.0,255,-99.99,,,0.00,Wunderground v.1.15,2013-09-06 08:58:00,
2013-09-06 05:04:00,-999.9,-99.9,30.03,North,32767,-999.0,0.0,255,-99.99,,,0.00,Wunderground v.1.15,2013-09-06 09:04:00,
2013-09-06 05:10:00,-999.9,-99.9,30.03,North,32767,-999.0,0.0,255,-99.99,,,0.00,Wunderground v.1.15,2013-09-06 09:10:00,
2013-09-06 05:16:00,-999.9,-99.9,30.03,North,32767,-999.0,0.0,255,-99.99,,,0.00,Wunderground v.1.15,2013-09-06 09:16:00,
2013-09-06 05:22:00,-999.9,-99.9,30.03,North,32767,-999.0,0.0,255,-99.99,,,0.00,Wunderground v.1.15,2013-09-06 09:22:00,
2013-09-06 05:28:00,-999.9,-99.9,30.03,North,32767,-999.0,0.0,255,-99.99,,,0.00,Wunderground v.1.15,2013-09-06 09:28:00,
2013-09-06 05:34:00,-999.9,-99.9,30.03,North,32767,-999.0,0.0,255,-99.99,,,0.00,Wunderground v.1.15,2013-09-06 09:34:00,
2013-09-06 05:40:00,-999.9,-99.9,30.03,North,32767,-999.0,0.0,255,-99.99,,,0.00,Wunderground v.1.15,2013-09-06 09:40:00,
2013-09-06 05:46:00,-999.9,-99.9,30.03,North,32767,-999.0,0.0,255,-99.99,,,0.00,Wunderground v.1.15,2013-09-06 09:46:00,
2013-09-06 05:52:00,-999.9,-99.9,30.03,North,32767,-999.0,0.0,255,-99.99,,,0.00,Wunderground v.1.15,2013-09-06 09:52:00,
2013-09-06 05:58:00,-999.9,-99.9,30.03,North,32767,-999.0,0.0,255,-99.99,,,0.00,Wunderground v.1.15,2013-09-06 09:58:00,
2013-09-06 06:04:00,-999.9,-99.9,30.03,North,32767,-999.0,0.0,255,-99.99,,,0.00,Wunderground v.1.15,2013-09-06 10:04:00,
2013-09-06 06:10:00,-999.9,-99.9,30.03,North,32767,-999.0,0.0,255,-99.99,,,0.00,Wunderground v.1.15,2013-09-06 10:10:00,
2013-09-06 06:16:00,-999.9,-99.9,30.04,North,32767,-999.0,0.0,255,-99.99,,,0.00,Wunderground v.1.15,2013-09-06 10:16:00,
2013-09-06 06:22:00,-999.9,-99.9,30.04,North,32767,-999.0,0.0,255,-99.99,,,0.00,Wunderground v.1.15,2013-09-06 10:22:00,
2013-09-06 06:28:00,-999.9,-99.9,30.04,North,32767,-999.0,0.0,255,-99.99,,,0.00,Wunderground v.1.15,2013-09-06 10:28:00,
2013-09-06 06:34:00,-999.9,-99.9,30.04,North,32767,-999.0,0.0,255,-99.99,,,0.00,Wunderground v.1.15,2013-09-06 10:34:00,
2013-09-06 06:40:00,-999.9,-99.9,30.04,North,32767,-999.0,0.0,255,-99.99,,,0.00,Wunderground v.1.15,2013-09-06 10:40:00,
2013-09-06 06:46:00,-999.9,-99.9,30.04,North,32767,-999.0,0.0,255,-99.99,,,0.00,Wunderground v.1.15,2013-09-06 10:46:00,
2013-09-06 06:52:00,-999.9,-99.9,30.05,North,32767,-999.0,0.0,255,-99.99,,,0.00,Wunderground v.1.15,2013-09-06 10:52:00,
2013-09-06 06:58:00,-999.9,-99.9,30.05,North,32767,-999.0,0.0,255,-99.99,,,0.00,Wunderground v.1.15,2013-09-06 10:58:00,
2013-09-06 07:04:00,-999.9,-99.9,30.05,North,32767,-999.0,0.0,255,-99.99,,,0.00,Wunderground v.1.15,2013-09-06 11:04:00,
2013-09-06 07:10:00,-999.9,-99.9,30.05,North,32767,-999.0,0.0,255,-99.99,,,0.00,Wunderground v.1.15,2013-09-06 11:10:00,
2013-09-06 07:16:00,-999.9,-99.9,30.05,North,32767,-999.0,0.0,255,-99.99,,,0.00,Wunderground v.1.15,2013-09-06 11:16:00,
2013-09-06 07:22:00,-999.9,-99.9,30.05,North,32767,-999.0,0.0,255,-99.99,,,0.00,Wunderground v.1.15,2013-09-06 11:22:00,
2013-09-06 07:28:00,-999.9,-99.9,30.05,North,32767,-999.0,0.0,255,-99.99,,,0.00,Wunderground v.1.15,2013-09-06 11:28:00,
2013-09-06 07:34:00,-999.9,-99.9,30.05,North,32767,-999.0,0.0,255,-99.99,,,0.00,Wunderground v.1.15,2013-09-06 11:34:00,
2013-09-06 07:40:00,-999.9,-99.9,30.05,North,32767,-999.0,0.0,255,-99.99,,,0.00,Wunderground v.1.15,2013-09-06 11:40:00,
2013-09-06 07:46:00,-999.9,-99.9,30.06,North,32767,-999.0,0.0,255,-99.99,,,0.00,Wunderground v.1.15,2013-09-06 11:46:00,
2013-09-06 07:52:00,-999.9,-99.9,30.05,North,32767,-999.0,0.0,255,-99.99,,,0.00,Wunderground v.1.15,2013-09-06 11:52:00,
2013-09-06 07:58:00,-999.9,-99.9,30.06,North,32767,-999.0,0.0,255,-99.99,,,0.00,Wunderground v.1.15,2013-09-06 11:58:00,
2013-09-06 08:04:00,76.3,75.4,30.06,WNW,294,0.0,0.0,97,0.00,,,0.00,Wunderground v.1.15,2013-09-06 12:04:00,
2013-09-06 08:10:00,76.5,75.3,30.06,WNW,301,0.0,0.0,96,0.00,,,0.00,Wunderground v.1.15,2013-09-06 12:10:00,
2013-09-06 08:16:00,76.8,75.6,30.06,WNW,288,0.0,0.0,96,0.00,,,0.00,Wunderground v.1.15,2013-09-06 12:16:00,
2013-09-06 08:22:00,77.0,75.8,30.06,NNW,329,0.0,0.0,96,0.00,,,0.00,Wunderground v.1.15,2013-09-06 12:22:00,
2013-09-06 08:28:00,77.3,75.8,30.06,NW,321,0.0,0.0,95,0.00,,,0.00,Wunderground v.1.15,2013-09-06 12:28:00,
2013-09-06 08:34:00,77.7,76.2,30.07,North,11,0.0,0.0,95,0.00,,,0.00,Wunderground v.1.15,2013-09-06 12:34:00,
2013-09-06 08:40:00,77.9,76.4,30.07,NNE,19,0.0,0.0,95,0.00,,,0.00,Wunderground v.1.15,2013-09-06 12:40:00,
2013-09-06 08:46:00,78.3,76.7,30.07,ENE,58,0.0,0.0,95,0.00,,,0.00,Wunderground v.1.15,2013-09-06 12:46:00,
2013-09-06 08:52:00,78.5,76.6,30.07,NNE,13,1.0,1.0,94,0.00,,,0.00,Wunderground v.1.15,2013-09-06 12:52:00,
2013-09-06 08:58:00,79.0,77.1,30.07,NE,41,1.0,1.0,94,0.00,,,0.00,Wunderground v.1.15,2013-09-06 12:58:00,
2013-09-06 09:04:00,79.6,77.4,30.07,ENE,66,1.0,5.0,93,0.00,,,0.00,Wunderground v.1.15,2013-09-06 13:04:00,
2013-09-06 09:10:00,79.5,77.3,30.07,NNE,32,3.0,3.0,93,0.00,,,0.00,Wunderground v.1.15,2013-09-06 13:10:00,
2013-09-06 09:16:00,80.2,78.3,30.07,NNW,336,3.0,4.0,94,0.00,,,0.00,Wunderground v.1.15,2013-09-06 13:16:00,
2013-09-06 09:22:00,80.5,78.3,30.07,ENE,63,3.0,3.0,93,0.00,,,0.00,Wunderground v.1.15,2013-09-06 13:22:00,
2013-09-06 09:28:00,81.2,78.3,30.07,NE,48,3.0,3.0,91,0.00,,,0.00,Wunderground v.1.15,2013-09-06 13:28:00,
2013-09-06 09:34:00,81.6,78.7,30.07,ENE,65,3.0,3.0,91,0.00,,,0.00,Wunderground v.1.15,2013-09-06 13:34:00,
2013-09-06 09:40:00,82.1,78.9,30.07,NE,55,2.0,3.0,90,0.00,,,0.00,Wunderground v.1.15,2013-09-06 13:40:00,
2013-09-06 09:46:00,82.4,78.8,30.07,NNW,346,2.0,6.0,89,0.00,,,0.00,Wunderground v.1.15,2013-09-06 13:46:00,
2013-09-06 09:52:00,82.3,78.4,30.07,NE,40,4.0,4.0,88,0.00,,,0.00,Wunderground v.1.15,2013-09-06 13:52:00,
2013-09-06 09:58:00,82.6,78.3,30.07,ENE,63,4.0,4.0,87,0.00,,,0.00,Wunderground v.1.15,2013-09-06 13:58:00,
2013-09-06 10:04:00,82.9,78.3,30.07,ESE,113,3.0,5.0,86,0.00,,,0.00,Wunderground v.1.15,2013-09-06 14:04:00,
2013-09-06 10:10:00,83.8,78.8,30.07,NNW,346,2.0,2.0,85,0.00,,,0.00,Wunderground v.1.15,2013-09-06 14:10:00,
2013-09-06 10:16:00,85.1,78.6,30.07,ESE,109,2.0,4.0,81,0.00,,,0.00,Wunderground v.1.15,2013-09-06 14:16:00,
2013-09-06 10:22:00,85.3,79.2,30.07,NE,38,3.0,4.0,82,0.00,,,0.00,Wunderground v.1.15,2013-09-06 14:22:00,
2013-09-06 10:28:00,85.4,78.5,30.07,East,96,3.0,7.0,80,0.00,,,0.00,Wunderground v.1.15,2013-09-06 14:28:00,
2013-09-06 10:34:00,85.7,78.4,30.07,NNE,19,4.0,7.0,79,0.00,,,0.00,Wunderground v.1.15,2013-09-06 14:34:00,
2013-09-06 10:40:00,85.4,78.1,30.07,NNE,28,5.0,5.0,79,0.00,,,0.00,Wunderground v.1.15,2013-09-06 14:40:00,
2013-09-06 10:46:00,85.4,78.5,30.07,NNE,17,4.0,5.0,80,0.00,,,0.00,Wunderground v.1.15,2013-09-06 14:46:00,
2013-09-06 10:52:00,85.4,78.1,30.07,NNW,329,4.0,5.0,79,0.00,,,0.00,Wunderground v.1.15,2013-09-06 14:52:00,
2013-09-06 10:58:00,85.8,78.1,30.07,NNE,26,6.0,8.0,78,0.00,,,0.00,Wunderground v.1.15,2013-09-06 14:58:00,
2013-09-06 11:04:00,85.3,77.7,30.07,North,360,7.0,8.0,78,0.00,,,0.00,Wunderground v.1.15,2013-09-06 15:04:00,
2013-09-06 11:10:00,85.6,77.9,30.07,NE,44,6.0,6.0,78,0.00,,,0.00,Wunderground v.1.15,2013-09-06 15:10:00,
2013-09-06 11:16:00,85.6,76.8,30.07,ESE,115,6.0,8.0,75,0.00,,,0.00,Wunderground v.1.15,2013-09-06 15:16:00,
2013-09-06 11:22:00,86.4,76.7,30.07,NE,51,5.0,5.0,73,0.00,,,0.00,Wunderground v.1.15,2013-09-06 15:22:00,
2013-09-06 11:28:00,86.6,77.7,30.07,ENE,72,5.0,10.0,75,0.00,,,0.00,Wunderground v.1.15,2013-09-06 15:28:00,
2013-09-06 11:34:00,85.6,77.2,30.07,NNE,24,8.0,9.0,76,0.00,,,0.00,Wunderground v.1.15,2013-09-06 15:34:00,
2013-09-06 11:40:00,85.0,77.4,30.07,NE,51,8.0,8.0,78,0.00,,,0.00,Wunderground v.1.15,2013-09-06 15:40:00,
2013-09-06 11:46:00,85.1,77.8,30.07,NNE,19,5.0,8.0,79,0.00,,,0.00,Wunderground v.1.15,2013-09-06 15:46:00,
2013-09-06 11:52:00,85.4,77.4,30.07,ENE,70,5.0,8.0,77,0.00,,,0.00,Wunderground v.1.15,2013-09-06 15:52:00,
2013-09-06 11:58:00,86.1,76.4,30.07,East,88,5.0,8.0,73,0.00,,,0.00,Wunderground v.1.15,2013-09-06 15:58:00,
2013-09-06 12:04:00,87.1,76.1,30.07,ENE,63,4.0,11.0,70,0.00,,,0.00,Wunderground v.1.15,2013-09-06 16:04:00,
2013-09-06 12:10:00,87.4,76.4,30.07,SE,140,4.0,4.0,70,0.00,,,0.00,Wunderground v.1.15,2013-09-06 16:10:00,
2013-09-06 12:16:00,87.7,77.1,30.07,NNE,19,5.0,8.0,71,0.00,,,0.00,Wunderground v.1.15,2013-09-06 16:16:00,
2013-09-06 12:22:00,87.1,76.5,30.07,NE,39,8.0,11.0,71,0.00,,,0.00,Wunderground v.1.15,2013-09-06 16:22:00,
2013-09-06 12:28:00,86.6,77.3,30.07,NNE,27,9.0,11.0,74,0.00,,,0.00,Wunderground v.1.15,2013-09-06 16:28:00,
2013-09-06 12:34:00,86.4,76.3,30.07,NNW,332,9.0,9.0,72,0.00,,,0.00,Wunderground v.1.15,2013-09-06 16:34:00,
2013-09-06 12:40:00,86.8,75.4,30.07,ENE,65,10.0,11.0,69,0.00,,,0.00,Wunderground v.1.15,2013-09-06 16:40:00,
2013-09-06 12:46:00,87.5,76.1,30.07,NE,44,8.0,11.0,69,0.00,,,0.00,Wunderground v.1.15,2013-09-06 16:46:00,
2013-09-06 12:52:00,87.4,76.0,30.07,East,88,9.0,15.0,69,0.00,,,0.00,Wunderground v.1.15,2013-09-06 16:52:00,
2013-09-06 12:58:00,87.4,76.8,30.07,NE,40,9.0,15.0,71,0.00,,,0.00,Wunderground v.1.15,2013-09-06 16:58:00,
2013-09-06 13:04:00,87.1,77.4,30.07,NE,35,10.0,14.0,73,0.00,,,0.00,Wunderground v.1.15,2013-09-06 17:04:00,
2013-09-06 13:10:00,86.6,75.6,30.06,NE,48,13.0,13.0,70,0.00,,,0.00,Wunderground v.1.15,2013-09-06 17:10:00,
2013-09-06 13:16:00,86.5,76.4,30.06,NE,42,13.0,13.0,72,0.00,,,0.00,Wunderground v.1.15,2013-09-06 17:16:00,
2013-09-06 13:22:00,86.3,76.6,30.06,NNE,23,14.0,15.0,73,0.00,,,0.00,Wunderground v.1.15,2013-09-06 17:22:00,
2013-09-06 13:28:00,86.5,78.0,30.06,NE,50,13.0,15.0,76,0.00,,,0.00,Wunderground v.1.15,2013-09-06 17:28:00,
2013-09-06 13:34:00,86.2,77.7,30.05,NE,53,13.0,16.0,76,0.00,,,0.00,Wunderground v.1.15,2013-09-06 17:34:00,
2013-09-06 13:40:00,85.7,77.3,30.05,NE,47,15.0,18.0,76,0.00,,,0.00,Wunderground v.1.15,2013-09-06 17:40:00,
2013-09-06 13:46:00,85.2,76.4,30.05,NNE,33,16.0,22.0,75,0.00,,,0.00,Wunderground v.1.15,2013-09-06 17:46:00,
2013-09-06 13:52:00,85.0,76.6,30.05,NE,46,16.0,18.0,76,0.00,,,0.00,Wunderground v.1.15,2013-09-06 17:52:00,
2013-09-06 13:58:00,84.7,77.1,30.05,NE,46,12.0,18.0,78,0.00,,,0.00,Wunderground v.1.15,2013-09-06 17:58:00,
2013-09-06 14:04:00,84.0,77.2,30.04,NE,48,11.0,18.0,80,0.00,,,0.00,Wunderground v.1.15,2013-09-06 18:04:00,
2013-09-06 14:10:00,83.6,77.1,30.04,NNE,30,13.0,16.0,81,0.00,,,0.00,Wunderground v.1.15,2013-09-06 18:10:00,
2013-09-06 14:16:00,83.3,76.9,30.03,NE,39,12.0,16.0,81,0.00,,,0.00,Wunderground v.1.15,2013-09-06 18:16:00,
2013-09-06 14:22:00,83.1,76.7,30.04,NE,44,12.0,14.0,81,0.00,,,0.00,Wunderground v.1.15,2013-09-06 18:22:00,
2013-09-06 14:28:00,82.8,76.7,30.04,NE,37,13.0,14.0,82,0.00,,,0.00,Wunderground v.1.15,2013-09-06 18:28:00,
2013-09-06 14:34:00,82.7,77.0,30.05,NE,48,13.0,13.0,83,0.00,,,0.00,Wunderground v.1.15,2013-09-06 18:34:00,
2013-09-06 14:40:00,82.4,76.7,30.03,NNE,19,13.0,13.0,83,0.00,,,0.00,Wunderground v.1.15,2013-09-06 18:40:00,
2013-09-06 14:46:00,82.2,76.9,30.03,NNE,26,12.0,13.0,84,0.00,,,0.00,Wunderground v.1.15,2013-09-06 18:46:00,
2013-09-06 14:52:00,82.1,76.8,30.04,NE,41,9.0,10.0,84,0.00,,,0.00,Wunderground v.1.15,2013-09-06 18:52:00,
2013-09-06 14:58:00,82.1,76.8,30.03,NE,51,8.0,11.0,84,0.00,,,0.00,Wunderground v.1.15,2013-09-06 18:58:00,
2013-09-06 15:04:00,82.0,76.7,30.03,NE,51,7.0,21.0,84,0.00,,,0.00,Wunderground v.1.15,2013-09-06 19:04:00,
2013-09-06 15:10:00,81.7,76.4,30.03,NE,49,6.0,6.0,84,0.00,,,0.00,Wunderground v.1.15,2013-09-06 19:10:00,
2013-09-06 15:16:00,81.6,76.6,30.03,NE,50,6.0,7.0,85,0.00,,,0.00,Wunderground v.1.15,2013-09-06 19:16:00,
2013-09-06 15:22:00,81.5,76.6,30.02,NE,38,6.0,6.0,85,0.00,,,0.00,Wunderground v.1.15,2013-09-06 19:22:00,
2013-09-06 15:28:00,81.4,76.8,30.02,NNW,338,5.0,6.0,86,0.00,,,0.00,Wunderground v.1.15,2013-09-06 19:28:00,
2013-09-06 15:34:00,81.2,76.6,30.02,NNE,19,4.0,5.0,86,0.00,,,0.00,Wunderground v.1.15,2013-09-06 19:34:00,
2013-09-06 15:40:00,81.1,76.9,30.01,NE,44,4.0,4.0,87,0.00,,,0.00,Wunderground v.1.15,2013-09-06 19:40:00,
2013-09-06 15:46:00,81.0,76.8,30.01,NE,35,4.0,5.0,87,0.00,,,0.00,Wunderground v.1.15,2013-09-06 19:46:00,
2013-09-06 15:52:00,81.0,76.8,30.01,NNE,14,5.0,6.0,87,0.00,,,0.00,Wunderground v.1.15,2013-09-06 19:52:00,
2013-09-06 15:58:00,80.9,77.0,30.00,NE,37,5.0,6.0,88,0.00,,,0.00,Wunderground v.1.15,2013-09-06 19:58:00,
2013-09-06 16:04:00,81.0,77.1,30.00,NNE,28,5.0,12.0,88,0.00,,,0.00,Wunderground v.1.15,2013-09-06 20:04:00,
2013-09-06 16:10:00,81.0,77.4,30.00,NE,49,4.0,4.0,89,0.00,,,0.00,Wunderground v.1.15,2013-09-06 20:10:00,
2013-09-06 16:16:00,81.1,77.2,30.01,ENE,75,4.0,5.0,88,0.00,,,0.00,Wunderground v.1.15,2013-09-06 20:16:00,
2013-09-06 16:22:00,81.4,77.5,30.01,East,84,2.0,3.0,88,0.00,,,0.00,Wunderground v.1.15,2013-09-06 20:22:00,
2013-09-06 16:28:00,81.5,77.3,30.01,ENE,76,2.0,4.0,87,0.00,,,0.00,Wunderground v.1.15,2013-09-06 20:28:00,
2013-09-06 16:34:00,81.6,77.4,30.01,ENE,61,3.0,4.0,87,0.00,,,0.00,Wunderground v.1.15,2013-09-06 20:34:00,
2013-09-06 16:40:00,81.4,77.5,30.00,ENE,78,3.0,4.0,88,0.00,,,0.00,Wunderground v.1.15,2013-09-06 20:40:00,
2013-09-06 16:46:00,81.4,77.2,30.00,ESE,106,3.0,4.0,87,0.00,,,0.00,Wunderground v.1.15,2013-09-06 20:46:00,
2013-09-06 16:52:00,81.5,75.8,30.00,ENE,67,3.0,8.0,83,0.00,,,0.00,Wunderground v.1.15,2013-09-06 20:52:00,
2013-09-06 16:58:00,81.7,74.9,30.00,East,90,5.0,8.0,80,0.00,,,0.00,Wunderground v.1.15,2013-09-06 20:58:00,
2013-09-06 17:04:00,82.1,74.9,30.00,East,88,4.0,8.0,79,0.00,,,0.00,Wunderground v.1.15,2013-09-06 21:04:00,
2013-09-06 17:10:00,82.3,74.7,30.00,ENE,66,4.0,4.0,78,0.00,,,0.00,Wunderground v.1.15,2013-09-06 21:10:00,
2013-09-06 17:16:00,82.4,74.5,30.00,ENE,74,5.0,7.0,77,0.00,,,0.00,Wunderground v.1.15,2013-09-06 21:16:00,
2013-09-06 17:22:00,82.4,74.5,30.00,ENE,76,5.0,6.0,77,0.00,,,0.00,Wunderground v.1.15,2013-09-06 21:22:00,
2013-09-06 17:28:00,82.4,74.8,30.00,ESE,121,5.0,6.0,78,0.00,,,0.00,Wunderground v.1.15,2013-09-06 21:28:00,
2013-09-06 17:34:00,82.1,76.4,30.01,SE,140,6.0,7.0,83,0.00,,,0.00,Wunderground v.1.15,2013-09-06 21:34:00,
2013-09-06 17:40:00,81.6,76.3,30.01,SE,138,7.0,10.0,84,0.00,,,0.00,Wunderground v.1.15,2013-09-06 21:40:00,
2013-09-06 17:46:00,81.2,76.3,30.01,ESE,123,7.0,10.0,85,0.00,,,0.00,Wunderground v.1.15,2013-09-06 21:46:00,
2013-09-06 17:52:00,81.0,76.1,30.01,South,170,5.0,7.0,85,0.00,,,0.00,Wunderground v.1.15,2013-09-06 21:52:00,
2013-09-06 17:58:00,81.0,76.1,30.02,SSW,195,4.0,7.0,85,0.00,,,0.00,Wunderground v.1.15,2013-09-06 21:58:00,
2013-09-06 18:04:00,80.8,76.2,30.02,South,170,4.0,10.0,86,0.00,,,0.00,Wunderground v.1.15,2013-09-06 22:04:00,
2013-09-06 18:10:00,80.6,76.0,30.02,South,182,4.0,4.0,86,0.00,,,0.00,Wunderground v.1.15,2013-09-06 22:10:00,
2013-09-06 18:16:00,80.5,75.9,30.03,South,175,3.0,5.0,86,0.00,,,0.00,Wunderground v.1.15,2013-09-06 22:16:00,
2013-09-06 18:22:00,80.3,76.1,30.03,SSW,205,4.0,5.0,87,0.00,,,0.00,Wunderground v.1.15,2013-09-06 22:22:00,
2013-09-06 18:28:00,80.3,75.7,30.03,South,184,3.0,5.0,86,0.00,,,0.00,Wunderground v.1.15,2013-09-06 22:28:00,
2013-09-06 18:34:00,79.9,75.7,30.03,SSW,195,4.0,4.0,87,0.00,,,0.00,Wunderground v.1.15,2013-09-06 22:34:00,
2013-09-06 18:40:00,80.0,75.8,30.03,South,186,3.0,3.0,87,0.00,,,0.00,Wunderground v.1.15,2013-09-06 22:40:00,
2013-09-06 18:46:00,79.9,75.3,30.03,SSW,200,4.0,6.0,86,0.00,,,0.00,Wunderground v.1.15,2013-09-06 22:46:00,
2013-09-06 18:52:00,80.0,75.4,30.03,SSW,195,4.0,4.0,86,0.00,,,0.00,Wunderground v.1.15,2013-09-06 22:52:00,
2013-09-06 18:58:00,79.7,75.5,30.03,SSW,192,3.0,4.0,87,0.00,,,0.00,Wunderground v.1.15,2013-09-06 22:58:00,
2013-09-06 19:04:00,79.4,75.2,30.03,SSW,202,3.0,8.0,87,0.00,,,0.00,Wunderground v.1.15,2013-09-06 23:04:00,
2013-09-06 19:10:00,79.5,75.3,30.03,South,173,2.0,2.0,87,0.00,,,0.00,Wunderground v.1.15,2013-09-06 23:10:00,
2013-09-06 19:16:00,79.6,75.4,30.03,SSW,198,2.0,4.0,87,0.00,,,0.00,Wunderground v.1.15,2013-09-06 23:16:00,
2013-09-06 19:22:00,79.3,75.1,30.03,SSW,196,3.0,5.0,87,0.00,,,0.00,Wunderground v.1.15,2013-09-06 23:22:00,
2013-09-06 19:28:00,79.4,75.2,30.03,SSW,203,4.0,5.0,87,0.00,,,0.00,Wunderground v.1.15,2013-09-06 23:28:00,
2013-09-06 19:34:00,79.7,75.1,30.03,SW,222,4.0,5.0,86,0.00,,,0.00,Wunderground v.1.15,2013-09-06 23:34:00,
2013-09-06 19:40:00,79.3,75.1,30.03,SW,227,4.0,5.0,87,0.00,,,0.00,Wunderground v.1.15,2013-09-06 23:40:00,
2013-09-06 19:46:00,79.0,75.1,30.03,SW,226,4.0,6.0,88,0.00,,,0.00,Wunderground v.1.15,2013-09-06 23:46:00,
2013-09-06 19:52:00,79.2,75.0,30.03,SW,222,3.0,3.0,87,0.00,,,0.00,Wunderground v.1.15,2013-09-06 23:52:00,
2013-09-06 19:58:00,79.0,75.1,30.03,SW,228,2.0,3.0,88,0.00,,,0.00,Wunderground v.1.15,2013-09-06 23:58:00,
2013-09-06 20:04:00,78.8,75.3,30.03,SW,229,3.0,5.0,89,0.00,,,0.00,Wunderground v.1.15,2013-09-07 00:04:00,
2013-09-06 20:10:00,78.9,75.4,30.03,WSW,238,3.0,3.0,89,0.00,,,0.00,Wunderground v.1.15,2013-09-07 00:10:00,
2013-09-06 20:16:00,78.6,75.4,30.03,SW,224,3.0,3.0,90,0.00,,,0.00,Wunderground v.1.15,2013-09-07 00:16:00,
2013-09-06 20:22:00,78.4,75.6,30.03,WSW,245,2.0,4.0,91,0.00,,,0.00,Wunderground v.1.15,2013-09-07 00:22:00,
2013-09-06 20:28:00,78.2,75.4,30.03,WSW,254,2.0,4.0,91,0.00,,,0.00,Wunderground v.1.15,2013-09-07 00:28:00,
2013-09-06 20:34:00,78.0,75.5,30.04,WSW,251,3.0,4.0,92,0.00,,,0.00,Wunderground v.1.15,2013-09-07 00:34:00,
2013-09-06 20:40:00,77.8,75.3,30.04,WSW,242,3.0,3.0,92,0.00,,,0.00,Wunderground v.1.15,2013-09-07 00:40:00,
2013-09-06 20:46:00,77.7,75.2,30.03,WSW,240,2.0,3.0,92,0.00,,,0.00,Wunderground v.1.15,2013-09-07 00:46:00,
2013-09-06 20:52:00,77.4,74.9,30.03,SW,224,1.0,2.0,92,0.00,,,0.00,Wunderground v.1.15,2013-09-07 00:52:00,
2013-09-06 20:58:00,77.2,74.7,30.03,West,263,1.0,2.0,92,0.00,,,0.00,Wunderground v.1.15,2013-09-07 00:58:00,
2013-09-06 21:04:00,77.0,74.8,30.02,WSW,258,0.0,6.0,93,0.00,,,0.00,Wunderground v.1.15,2013-09-07 01:04:00,
2013-09-06 21:10:00,76.8,74.6,30.02,SW,234,0.0,0.0,93,0.00,,,0.00,Wunderground v.1.15,2013-09-07 01:10:00,
2013-09-06 21:16:00,76.6,74.4,30.02,SW,222,0.0,1.0,93,0.00,,,0.00,Wunderground v.1.15,2013-09-07 01:16:00,
2013-09-06 21:22:00,76.5,74.6,30.02,West,264,0.0,0.0,94,0.00,,,0.00,Wunderground v.1.15,2013-09-07 01:22:00,
2013-09-06 21:28:00,76.5,74.6,30.02,West,278,0.0,0.0,94,0.00,,,0.00,Wunderground v.1.15,2013-09-07 01:28:00,
2013-09-06 21:34:00,76.4,74.5,30.03,WSW,256,1.0,1.0,94,0.00,,,0.00,Wunderground v.1.15,2013-09-07 01:34:00,
2013-09-06 21:40:00,76.3,74.4,30.03,WSW,250,1.0,2.0,94,0.00,,,0.00,Wunderground v.1.15,2013-09-07 01:40:00,
2013-09-06 21:46:00,76.1,74.2,30.03,West,259,2.0,3.0,94,0.00,,,0.00,Wunderground v.1.15,2013-09-07 01:46:00,
2013-09-06 21:52:00,76.1,73.9,30.03,West,273,2.0,3.0,93,0.00,,,0.00,Wunderground v.1.15,2013-09-07 01:52:00,
2013-09-06 21:58:00,75.9,73.7,30.03,WSW,242,2.0,3.0,93,0.00,,,0.00,Wunderground v.1.15,2013-09-07 01:58:00,
2013-09-06 22:04:00,75.9,74.0,30.03,West,276,1.0,2.0,94,0.00,,,0.00,Wunderground v.1.15,2013-09-07 02:04:00,
2013-09-06 22:10:00,75.8,73.6,30.03,West,279,1.0,1.0,93,0.00,,,0.00,Wunderground v.1.15,2013-09-07 02:10:00,
2013-09-06 22:16:00,75.7,73.5,30.03,West,268,0.0,1.0,93,0.00,,,0.00,Wunderground v.1.15,2013-09-07 02:16:00,
2013-09-06 22:22:00,75.5,73.7,30.03,WNW,283,0.0,1.0,94,0.00,,,0.00,Wunderground v.1.15,2013-09-07 02:22:00,
2013-09-06 22:28:00,75.5,73.7,30.03,WNW,288,1.0,2.0,94,0.00,,,0.00,Wunderground v.1.15,2013-09-07 02:28:00,
2013-09-06 22:34:00,75.2,73.4,30.03,WNW,294,3.0,3.0,94,0.00,,,0.00,Wunderground v.1.15,2013-09-07 02:34:00,
2013-09-06 22:40:00,75.1,73.3,30.03,WNW,294,3.0,3.0,94,0.00,,,0.00,Wunderground v.1.15,2013-09-07 02:40:00,
2013-09-06 22:46:00,75.0,73.2,30.03,WNW,289,3.0,3.0,94,0.00,,,0.00,Wunderground v.1.15,2013-09-07 02:46:00,
2013-09-06 22:52:00,74.8,73.0,30.03,WNW,290,3.0,3.0,94,0.00,,,0.00,Wunderground v.1.15,2013-09-07 02:52:00,
2013-09-06 22:58:00,74.7,72.9,30.03,West,261,3.0,3.0,94,0.00,,,0.00,Wunderground v.1.15,2013-09-07 02:58:00,
2013-09-06 23:04:00,74.6,72.8,30.03,WNW,290,2.0,4.0,94,0.00,,,0.00,Wunderground v.1.15,2013-09-07 03:04:00,
2013-09-06 23:10:00,74.5,72.7,30.03,West,264,2.0,2.0,94,0.00,,,0.00,Wunderground v.1.15,2013-09-07 03:10:00,
2013-09-06 23:16:00,74.5,72.7,30.03,WNW,290,1.0,3.0,94,0.00,,,0.00,Wunderground v.1.15,2013-09-07 03:16:00,
2013-09-06 23:22:00,74.4,72.6,30.03,WNW,298,2.0,4.0,94,0.00,,,0.00,Wunderground v.1.15,2013-09-07 03:22:00,
2013-09-06 23:28:00,74.3,72.5,30.02,NNW,338,2.0,5.0,94,0.00,,,0.00,Wunderground v.1.15,2013-09-07 03:28:00,
2013-09-06 23:34:00,74.1,72.3,30.03,WNW,290,3.0,5.0,94,0.00,,,0.00,Wunderground v.1.15,2013-09-07 03:34:00,
2013-09-06 23:40:00,74.0,72.2,30.03,NW,304,3.0,4.0,94,0.00,,,0.00,Wunderground v.1.15,2013-09-07 03:40:00,
2013-09-06 23:46:00,73.9,72.4,30.03,WNW,284,3.0,4.0,95,0.00,,,0.00,Wunderground v.1.15,2013-09-07 03:46:00,
2013-09-06 23:52:00,73.9,72.4,30.03,West,277,2.0,2.0,95,0.00,,,0.00,Wunderground v.1.15,2013-09-07 03:52:00,
2013-09-06 23:58:00,73.8,72.3,30.03,NW,305,1.0,3.0,95,0.00,,,0.00,Wunderground v.1.15,2013-09-07 03:58:00,